Nearby METAR Reports

This page may be slow to load as it queries the National Weather Service for data.

KBIS - Bismarck, North Dakota, USA
Distance from station: S 10mi, 15km
Updated: Wed, 17-Jan-2018 12:52pm CST
Clear
Clear
 Wind from W
Wind: W 12 mph , 19 km/h
Temperature: 37°F , 3°C
Wind Chill: 29°F , -2°C
Dew Point: 23°F , -5°C
Humidity: 56%
Barometer: 30.10 inHg , 1019.3 hPa
Clouds: Clear
Visibility: 10 miles , 16 km
2018/01/17 18:52 KBIS 171852Z 28010KT 10SM CLR 03/M05 A3010 RMK AO2 SLP220 T00331050 $
KDIK - Dickinson, North Dakota, USA
Distance from station: W 95mi, 154km
Updated: Wed, 17-Jan-2018 12:56pm CST
Clear
Clear
 Wind from W
Wind: W 21 mph , 33 km/h
Temperature: 36°F , 2°C
Wind Chill: 25°F , -4°C
Dew Point: 23°F , -5°C
Humidity: 60%
Barometer: 30.10 inHg , 1019.3 hPa
Clouds: Clear
Visibility: 10 miles , 16 km
2018/01/17 18:56 KDIK 171856Z AUTO 27018KT 10SM CLR 02/M05 A3010 RMK AO2 SLP225 T00221050
 
KISN - Williston, North Dakota, USA
Distance from station: NNW 2mi, 2km
Updated: Wed, 17-Jan-2018 12:52pm CST
Clear
Clear
 Wind from WSW
Wind: WSW 14 mph , 22 km/h
Temperature: 28°F , -2°C
Wind Chill: 17°F , -8°C
Dew Point: 19°F , -7°C
Humidity: 69%
Barometer: 30.10 inHg , 1019.3 hPa
Clouds: Clear
Visibility: 10 miles , 16 km
2018/01/17 18:52 KISN 171852Z AUTO 24012KT 10SM CLR M02/M07 A3010 RMK AO2 SLP233 T10171067
KFAR - Fargo, North Dakota, USA
Distance from station: NNW 4mi, 7km
Updated: Wed, 17-Jan-2018 12:53pm CST
Clear
Clear
 Wind from SSW
Wind: SSW 15 mph , 24 km/h
Temperature: 21°F , -6°C
Wind Chill: 7°F , -14°C
Dew Point: 12°F , -11°C
Humidity: 68%
Barometer: 30.02 inHg , 1016.6 hPa
Clouds: Clear
Visibility: 10 miles , 16 km
2018/01/17 18:53 KFAR 171853Z 21013KT 10SM CLR M06/M11 A3002 RMK AO2 SLP187 T10561111
 
KGFK - Grand Forks, North Dakota, USA
Distance from station: NNW 76mi, 123km
Updated: Wed, 17-Jan-2018 12:53pm CST
Clear
Clear
 Wind from SSW
Wind: SSW 16 mph , 26 km/h
Temperature: 25°F , -4°C
Wind Chill: 12°F , -11°C
Dew Point: 18°F , -8°C
Humidity: 74%
Barometer: 29.92 inHg , 1013.2 hPa
Clouds: Clear
Visibility: 10 miles , 16 km
2018/01/17 18:53 KGFK 171853Z 21014KT 10SM CLR M04/M08 A2992 RMK AO2 SLP151 T10391083
KMOT - Minot, North Dakota, USA
Distance from station: E 109mi, 175km
Updated: Wed, 17-Jan-2018 12:54pm CST
Clear
Clear
 Wind from WSW
Wind: WSW 16 mph , 26 km/h
Temperature: 36°F , 2°C
Wind Chill: 26°F , -3°C
Dew Point: 19°F , -7°C
Humidity: 52%
Barometer: 29.99 inHg , 1015.6 hPa
Clouds: Clear
Visibility: 10 miles , 16 km
2018/01/17 18:54 KMOT 171854Z 24014KT 10SM CLR 02/M07 A2999 RMK AO2 SLP181 T00221067